Overpeck, Ohio
Current Conditions -  °F | °C
As of 9:53 AM on Thursday 23 Oct 2014 (Local Time) from KHAO Reporting Station
Haze Haze  
Wind Chill: 45°   Ceiling: Unl
Heat Index: 45°   Visibility: 6mi
Dew Point: 41°   Wind: 0mph
Humidity: 86%   Direction: NA
Pressure: 30.27"   Gusts: NA
Location:  39.45°N, 84.51°W
Report Text: KHAO 231353Z AUTO 00000KT 6SM BR CLR 07/05 A3027 RMK AO2 SLP254 T00720050
Loading
Personal Weather Stations






























Interactive Weather Map
Tropical Storm Tracking
New forecast layout! Learn more

10-Day Weather Forecast

Advertisements
Track Severe Weather on mobile